sensor_id;sensor_type;location;lat;lon;timestamp;pressure;altitude;pressure_sealevel;temperature;humidity
36248;BME280;22287;50.824;5.644;2022-12-07T00:01:16;101077.22;;;6.76;71.52
36248;BME280;22287;50.824;5.644;2022-12-07T00:03:45;101079.03;;;6.89;70.69
36248;BME280;22287;50.824;5.644;2022-12-07T00:06:14;101068.47;;;6.86;71.06
36248;BME280;22287;50.824;5.644;2022-12-07T00:08:41;101068.31;;;6.61;71.77
36248;BME280;22287;50.824;5.644;2022-12-07T00:11:18;101073.22;;;6.40;72.34
36248;BME280;22287;50.824;5.644;2022-12-07T00:13:47;101076.00;;;6.53;72.54
36248;BME280;22287;50.824;5.644;2022-12-07T00:16:16;101069.19;;;6.62;72.52
36248;BME280;22287;50.824;5.644;2022-12-07T00:18:44;101062.28;;;6.58;72.24
36248;BME280;22287;50.824;5.644;2022-12-07T00:21:18;101058.06;;;6.68;71.83
36248;BME280;22287;50.824;5.644;2022-12-07T00:23:47;101055.84;;;6.60;72.60
36248;BME280;22287;50.824;5.644;2022-12-07T00:26:17;101051.44;;;6.59;72.40
36248;BME280;22287;50.824;5.644;2022-12-07T00:28:46;101048.63;;;6.75;71.77
36248;BME280;22287;50.824;5.644;2022-12-07T00:31:14;101048.44;;;6.78;71.78
36248;BME280;22287;50.824;5.644;2022-12-07T00:33:41;101047.78;;;6.60;71.73
36248;BME280;22287;50.824;5.644;2022-12-07T00:36:11;101050.38;;;6.76;71.63
36248;BME280;22287;50.824;5.644;2022-12-07T00:38:38;101038.03;;;6.59;71.74
36248;BME280;22287;50.824;5.644;2022-12-07T00:41:10;101035.56;;;6.83;71.62
36248;BME280;22287;50.824;5.644;2022-12-07T00:43:38;101029.44;;;6.81;71.63
36248;BME280;22287;50.824;5.644;2022-12-07T00:46:05;101028.88;;;6.76;70.87
36248;BME280;22287;50.824;5.644;2022-12-07T00:48:32;101023.41;;;6.77;71.50
36248;BME280;22287;50.824;5.644;2022-12-07T00:50:59;101025.09;;;6.37;72.75
36248;BME280;22287;50.824;5.644;2022-12-07T00:53:26;101024.03;;;6.40;73.12
36248;BME280;22287;50.824;5.644;2022-12-07T00:55:54;101028.41;;;6.55;72.28
36248;BME280;22287;50.824;5.644;2022-12-07T00:58:23;101031.72;;;6.46;72.28
36248;BME280;22287;50.824;5.644;2022-12-07T01:00:50;101024.78;;;6.42;72.55
36248;BME280;22287;50.824;5.644;2022-12-07T01:03:17;101037.28;;;6.43;71.77
36248;BME280;22287;50.824;5.644;2022-12-07T01:05:54;101038.97;;;6.30;72.73
36248;BME280;22287;50.824;5.644;2022-12-07T01:08:23;101040.91;;;6.42;71.85
36248;BME280;22287;50.824;5.644;2022-12-07T01:11:00;101044.84;;;6.50;72.41
36248;BME280;22287;50.824;5.644;2022-12-07T01:13:28;101045.00;;;6.62;71.45
36248;BME280;22287;50.824;5.644;2022-12-07T01:15:59;101034.59;;;6.57;71.82
36248;BME280;22287;50.824;5.644;2022-12-07T01:18:26;101043.00;;;6.65;71.64
36248;BME280;22287;50.824;5.644;2022-12-07T01:23:31;101046.19;;;6.29;72.45
36248;BME280;22287;50.824;5.644;2022-12-07T01:26:00;101049.91;;;6.41;71.98
36248;BME280;22287;50.824;5.644;2022-12-07T01:28:27;101046.63;;;6.64;71.87
36248;BME280;22287;50.824;5.644;2022-12-07T01:31:03;101036.28;;;6.72;71.48
36248;BME280;22287;50.824;5.644;2022-12-07T01:33:33;101042.81;;;6.68;71.57
36248;BME280;22287;50.824;5.644;2022-12-07T01:36:12;101046.06;;;6.31;72.88
36248;BME280;22287;50.824;5.644;2022-12-07T01:38:39;101047.41;;;6.10;74.30
36248;BME280;22287;50.824;5.644;2022-12-07T01:41:06;101049.63;;;6.45;73.40
36248;BME280;22287;50.824;5.644;2022-12-07T01:43:33;101047.19;;;6.69;72.26
36248;BME280;22287;50.824;5.644;2022-12-07T01:46:02;101050.88;;;6.54;72.66
36248;BME280;22287;50.824;5.644;2022-12-07T01:48:39;101046.25;;;6.70;72.36
36248;BME280;22287;50.824;5.644;2022-12-07T01:51:11;101037.81;;;6.76;71.98
36248;BME280;22287;50.824;5.644;2022-12-07T01:53:43;101048.94;;;6.70;72.47
36248;BME280;22287;50.824;5.644;2022-12-07T01:56:17;101043.81;;;6.94;71.91
36248;BME280;22287;50.824;5.644;2022-12-07T01:58:46;101041.72;;;6.85;71.92
36248;BME280;22287;50.824;5.644;2022-12-07T02:01:14;101045.28;;;6.71;72.69
36248;BME280;22287;50.824;5.644;2022-12-07T02:03:43;101046.53;;;5.95;75.03
36248;BME280;22287;50.824;5.644;2022-12-07T02:06:13;101039.81;;;6.73;73.06
36248;BME280;22287;50.824;5.644;2022-12-07T02:08:43;101037.81;;;6.62;72.97
36248;BME280;22287;50.824;5.644;2022-12-07T02:11:10;101032.25;;;6.65;73.02
36248;BME280;22287;50.824;5.644;2022-12-07T02:13:39;101037.44;;;6.68;72.49
36248;BME280;22287;50.824;5.644;2022-12-07T02:16:42;101027.44;;;6.84;72.22
36248;BME280;22287;50.824;5.644;2022-12-07T02:22:54;101031.03;;;6.42;73.51
36248;BME280;22287;50.824;5.644;2022-12-07T02:30:46;101030.91;;;6.30;73.32
36248;BME280;22287;50.824;5.644;2022-12-07T02:33:19;101029.75;;;5.91;74.93
36248;BME280;22287;50.824;5.644;2022-12-07T02:36:09;101032.16;;;5.96;74.64
36248;BME280;22287;50.824;5.644;2022-12-07T02:38:47;101033.78;;;5.99;74.52
36248;BME280;22287;50.824;5.644;2022-12-07T02:41:23;101027.25;;;6.03;74.56
36248;BME280;22287;50.824;5.644;2022-12-07T02:43:55;101025.53;;;5.58;75.96
36248;BME280;22287;50.824;5.644;2022-12-07T02:46:29;101019.38;;;5.85;75.42
36248;BME280;22287;50.824;5.644;2022-12-07T02:48:57;101027.25;;;6.03;74.60
36248;BME280;22287;50.824;5.644;2022-12-07T02:51:30;101017.91;;;6.24;74.07
36248;BME280;22287;50.824;5.644;2022-12-07T02:53:57;101020.97;;;6.32;73.62
36248;BME280;22287;50.824;5.644;2022-12-07T03:18:51;101034.19;;;6.07;74.32
36248;BME280;22287;50.824;5.644;2022-12-07T03:21:22;101029.97;;;6.31;73.14
36248;BME280;22287;50.824;5.644;2022-12-07T03:23:55;101036.09;;;6.33;73.35
36248;BME280;22287;50.824;5.644;2022-12-07T03:26:28;101031.97;;;6.41;72.50
36248;BME280;22287;50.824;5.644;2022-12-07T03:29:00;101034.66;;;6.56;72.38
36248;BME280;22287;50.824;5.644;2022-12-07T03:31:31;101028.34;;;6.42;72.98
36248;BME280;22287;50.824;5.644;2022-12-07T03:34:07;101027.09;;;6.34;72.39
36248;BME280;22287;50.824;5.644;2022-12-07T03:36:47;101018.66;;;6.54;72.83
36248;BME280;22287;50.824;5.644;2022-12-07T03:41:52;101015.72;;;6.71;71.94
36248;BME280;22287;50.824;5.644;2022-12-07T03:44:19;101004.03;;;6.72;71.76
36248;BME280;22287;50.824;5.644;2022-12-07T03:52:24;101010.81;;;6.37;72.59
36248;BME280;22287;50.824;5.644;2022-12-07T03:57:19;101016.44;;;5.74;76.37
36248;BME280;22287;50.824;5.644;2022-12-07T03:59:47;101013.09;;;6.01;74.17
36248;BME280;22287;50.824;5.644;2022-12-07T04:02:15;101008.88;;;6.39;73.92
36248;BME280;22287;50.824;5.644;2022-12-07T04:04:43;101017.63;;;6.28;73.82
36248;BME280;22287;50.824;5.644;2022-12-07T04:07:09;101021.72;;;6.34;73.63
36248;BME280;22287;50.824;5.644;2022-12-07T04:09:37;101016.53;;;6.45;72.82
36248;BME280;22287;50.824;5.644;2022-12-07T04:12:04;101019.88;;;5.92;75.09
36248;BME280;22287;50.824;5.644;2022-12-07T04:14:31;101014.84;;;6.02;74.48
36248;BME280;22287;50.824;5.644;2022-12-07T04:16:58;101014.34;;;6.23;74.39
36248;BME280;22287;50.824;5.644;2022-12-07T04:19:30;101008.91;;;5.81;75.96
36248;BME280;22287;50.824;5.644;2022-12-07T04:21:58;101015.78;;;6.01;75.44
36248;BME280;22287;50.824;5.644;2022-12-07T04:24:26;101021.72;;;6.48;73.38
36248;BME280;22287;50.824;5.644;2022-12-07T04:26:53;101022.31;;;6.39;73.46
36248;BME280;22287;50.824;5.644;2022-12-07T04:29:20;101016.34;;;6.62;73.20
36248;BME280;22287;50.824;5.644;2022-12-07T04:31:48;101015.78;;;6.43;73.04
36248;BME280;22287;50.824;5.644;2022-12-07T04:34:16;101015.31;;;6.36;74.37
36248;BME280;22287;50.824;5.644;2022-12-07T04:36:44;101016.53;;;6.45;73.58
36248;BME280;22287;50.824;5.644;2022-12-07T04:39:28;101013.69;;;6.20;73.96
36248;BME280;22287;50.824;5.644;2022-12-07T04:41:56;101008.13;;;6.37;73.25
36248;BME280;22287;50.824;5.644;2022-12-07T04:44:24;101004.69;;;6.35;73.90
36248;BME280;22287;50.824;5.644;2022-12-07T04:46:52;101005.81;;;6.31;73.78
36248;BME280;22287;50.824;5.644;2022-12-07T04:49:20;101001.69;;;6.39;73.11
36248;BME280;22287;50.824;5.644;2022-12-07T04:51:47;101010.63;;;6.40;73.62
36248;BME280;22287;50.824;5.644;2022-12-07T04:54:15;101013.19;;;6.13;74.34
36248;BME280;22287;50.824;5.644;2022-12-07T04:56:43;101017.31;;;6.19;74.44
36248;BME280;22287;50.824;5.644;2022-12-07T04:59:11;101011.09;;;5.74;76.33
36248;BME280;22287;50.824;5.644;2022-12-07T05:01:38;101011.66;;;5.65;76.82
36248;BME280;22287;50.824;5.644;2022-12-07T05:04:06;100993.84;;;6.08;75.17
36248;BME280;22287;50.824;5.644;2022-12-07T05:06:33;101000.44;;;6.17;74.92
36248;BME280;22287;50.824;5.644;2022-12-07T05:09:00;101004.88;;;6.18;74.85
36248;BME280;22287;50.824;5.644;2022-12-07T05:11:27;101008.47;;;5.88;75.03
36248;BME280;22287;50.824;5.644;2022-12-07T05:14:09;101009.34;;;5.29;77.47
36248;BME280;22287;50.824;5.644;2022-12-07T05:16:38;101013.53;;;5.49;76.86
36248;BME280;22287;50.824;5.644;2022-12-07T05:19:06;101014.34;;;5.65;75.53
36248;BME280;22287;50.824;5.644;2022-12-07T05:21:33;101014.31;;;5.51;75.37
36248;BME280;22287;50.824;5.644;2022-12-07T05:24:00;101018.06;;;5.63;75.54
36248;BME280;22287;50.824;5.644;2022-12-07T05:26:27;101011.56;;;5.37;75.61
36248;BME280;22287;50.824;5.644;2022-12-07T05:28:55;101014.25;;;5.67;74.89
36248;BME280;22287;50.824;5.644;2022-12-07T05:31:23;101011.81;;;5.48;75.16
36248;BME280;22287;50.824;5.644;2022-12-07T05:33:51;101007.03;;;5.53;74.69
36248;BME280;22287;50.824;5.644;2022-12-07T05:36:18;101010.22;;;5.30;75.24
36248;BME280;22287;50.824;5.644;2022-12-07T05:38:44;100998.59;;;5.45;75.52
36248;BME280;22287;50.824;5.644;2022-12-07T05:41:17;101002.22;;;5.44;75.37
36248;BME280;22287;50.824;5.644;2022-12-07T05:44:03;101000.19;;;5.77;74.28
36248;BME280;22287;50.824;5.644;2022-12-07T05:46:30;100997.50;;;5.77;74.77
36248;BME280;22287;50.824;5.644;2022-12-07T05:48:56;100996.56;;;5.78;74.20
36248;BME280;22287;50.824;5.644;2022-12-07T05:51:23;101001.63;;;5.69;74.25
36248;BME280;22287;50.824;5.644;2022-12-07T05:53:50;101004.16;;;5.56;75.23
36248;BME280;22287;50.824;5.644;2022-12-07T05:56:17;101002.06;;;5.61;74.94
36248;BME280;22287;50.824;5.644;2022-12-07T05:58:44;101000.28;;;5.76;74.86
36248;BME280;22287;50.824;5.644;2022-12-07T06:01:29;100998.09;;;5.82;74.39
36248;BME280;22287;50.824;5.644;2022-12-07T06:03:56;100999.09;;;5.96;73.60
36248;BME280;22287;50.824;5.644;2022-12-07T06:06:23;100998.25;;;6.09;73.48
36248;BME280;22287;50.824;5.644;2022-12-07T06:08:50;100991.34;;;6.05;73.12
36248;BME280;22287;50.824;5.644;2022-12-07T06:11:17;101006.28;;;5.95;74.20
36248;BME280;22287;50.824;5.644;2022-12-07T06:14:03;101008.22;;;6.07;73.32
36248;BME280;22287;50.824;5.644;2022-12-07T06:16:29;101007.28;;;5.78;74.49
36248;BME280;22287;50.824;5.644;2022-12-07T06:18:56;101007.72;;;6.01;73.68
36248;BME280;22287;50.824;5.644;2022-12-07T06:21:23;101012.03;;;6.03;72.94
36248;BME280;22287;50.824;5.644;2022-12-07T06:23:52;101012.47;;;5.81;74.23
36248;BME280;22287;50.824;5.644;2022-12-07T06:26:19;101009.47;;;5.58;74.83
36248;BME280;22287;50.824;5.644;2022-12-07T06:28:46;101011.53;;;5.97;74.15
36248;BME280;22287;50.824;5.644;2022-12-07T06:31:13;101002.84;;;5.93;73.68
36248;BME280;22287;50.824;5.644;2022-12-07T06:33:40;101006.47;;;5.92;73.65
36248;BME280;22287;50.824;5.644;2022-12-07T06:36:08;100998.06;;;5.98;73.65
36248;BME280;22287;50.824;5.644;2022-12-07T06:38:36;100998.13;;;5.97;73.29
36248;BME280;22287;50.824;5.644;2022-12-07T06:41:03;101010.28;;;5.58;74.64
36248;BME280;22287;50.824;5.644;2022-12-07T06:43:30;101005.44;;;5.65;74.96
36248;BME280;22287;50.824;5.644;2022-12-07T06:45:57;101013.22;;;5.83;74.19
36248;BME280;22287;50.824;5.644;2022-12-07T06:48:24;101019.16;;;5.45;75.64
36248;BME280;22287;50.824;5.644;2022-12-07T06:50:51;101014.94;;;5.70;74.74
36248;BME280;22287;50.824;5.644;2022-12-07T06:53:20;101014.75;;;5.73;74.52
36248;BME280;22287;50.824;5.644;2022-12-07T06:55:47;101015.03;;;5.83;74.16
36248;BME280;22287;50.824;5.644;2022-12-07T06:58:14;101022.06;;;5.85;74.09
36248;BME280;22287;50.824;5.644;2022-12-07T07:00:40;101020.78;;;5.47;75.64
36248;BME280;22287;50.824;5.644;2022-12-07T07:03:07;101014.56;;;5.76;74.63
36248;BME280;22287;50.824;5.644;2022-12-07T07:05:34;101014.75;;;5.73;75.42
36248;BME280;22287;50.824;5.644;2022-12-07T07:08:01;101014.38;;;5.79;75.14
36248;BME280;22287;50.824;5.644;2022-12-07T07:10:47;101014.66;;;6.05;74.08
36248;BME280;22287;50.824;5.644;2022-12-07T07:13:14;101028.63;;;6.10;73.41
36248;BME280;22287;50.824;5.644;2022-12-07T07:15:41;101021.81;;;6.04;74.04
36248;BME280;22287;50.824;5.644;2022-12-07T07:18:08;101018.28;;;6.04;73.39
36248;BME280;22287;50.824;5.644;2022-12-07T07:20:36;101026.59;;;6.13;73.42
36248;BME280;22287;50.824;5.644;2022-12-07T07:23:04;101021.22;;;6.13;73.29
36248;BME280;22287;50.824;5.644;2022-12-07T07:25:31;101020.97;;;6.18;72.57
36248;BME280;22287;50.824;5.644;2022-12-07T07:27:58;101020.28;;;6.28;72.80
36248;BME280;22287;50.824;5.644;2022-12-07T07:30:25;101019.22;;;6.03;73.98
36248;BME280;22287;50.824;5.644;2022-12-07T07:32:57;101023.34;;;6.22;72.03
36248;BME280;22287;50.824;5.644;2022-12-07T07:35:25;101019.91;;;6.20;72.48
36248;BME280;22287;50.824;5.644;2022-12-07T07:37:52;101013.19;;;6.13;73.14
36248;BME280;22287;50.824;5.644;2022-12-07T07:40:19;101010.59;;;5.98;73.77
36248;BME280;22287;50.824;5.644;2022-12-07T07:42:52;101016.06;;;5.96;74.26
36248;BME280;22287;50.824;5.644;2022-12-07T07:45:21;101022.50;;;5.78;74.90
36248;BME280;22287;50.824;5.644;2022-12-07T07:47:48;101028.03;;;5.90;74.33
36248;BME280;22287;50.824;5.644;2022-12-07T07:50:16;101017.50;;;5.87;73.96
36248;BME280;22287;50.824;5.644;2022-12-07T07:52:43;101022.88;;;6.02;72.97
36248;BME280;22287;50.824;5.644;2022-12-07T07:55:10;101031.28;;;5.96;73.28
36248;BME280;22287;50.824;5.644;2022-12-07T07:57:38;101028.47;;;5.53;74.57
36248;BME280;22287;50.824;5.644;2022-12-07T08:00:08;101033.00;;;5.97;73.58
36248;BME280;22287;50.824;5.644;2022-12-07T08:02:39;101029.56;;;6.09;72.46
36248;BME280;22287;50.824;5.644;2022-12-07T08:05:06;101025.94;;;5.96;72.92
36248;BME280;22287;50.824;5.644;2022-12-07T08:07:33;101027.19;;;5.74;73.56
36248;BME280;22287;50.824;5.644;2022-12-07T08:10:00;101029.97;;;5.73;73.71
36248;BME280;22287;50.824;5.644;2022-12-07T08:12:27;101037.91;;;5.74;73.02
36248;BME280;22287;50.824;5.644;2022-12-07T08:14:54;101039.78;;;5.58;73.47
36248;BME280;22287;50.824;5.644;2022-12-07T08:17:21;101035.47;;;5.56;72.72
36248;BME280;22287;50.824;5.644;2022-12-07T08:19:47;101038.66;;;5.62;72.42
36248;BME280;22287;50.824;5.644;2022-12-07T08:22:14;101040.94;;;5.39;73.00
36248;BME280;22287;50.824;5.644;2022-12-07T08:24:41;101042.34;;;5.46;72.78
36248;BME280;22287;50.824;5.644;2022-12-07T08:27:08;101044.59;;;5.38;72.60
36248;BME280;22287;50.824;5.644;2022-12-07T08:29:34;101035.22;;;5.15;73.05
36248;BME280;22287;50.824;5.644;2022-12-07T08:32:01;101038.25;;;5.09;73.00
36248;BME280;22287;50.824;5.644;2022-12-07T08:34:33;101044.13;;;4.84;73.10
36248;BME280;22287;50.824;5.644;2022-12-07T08:37:00;101039.53;;;4.86;73.83
36248;BME280;22287;50.824;5.644;2022-12-07T08:39:27;101030.41;;;4.90;73.45
36248;BME280;22287;50.824;5.644;2022-12-07T08:41:58;101035.59;;;4.78;73.18
36248;BME280;22287;50.824;5.644;2022-12-07T08:44:25;101041.53;;;4.67;74.33
36248;BME280;22287;50.824;5.644;2022-12-07T08:46:56;101039.13;;;4.94;73.76
36248;BME280;22287;50.824;5.644;2022-12-07T08:49:33;101047.75;;;5.14;72.99
36248;BME280;22287;50.824;5.644;2022-12-07T08:52:04;101051.22;;;5.16;73.33
36248;BME280;22287;50.824;5.644;2022-12-07T08:54:33;101058.56;;;4.97;73.50
36248;BME280;22287;50.824;5.644;2022-12-07T08:57:02;101055.88;;;4.97;74.44
36248;BME280;22287;50.824;5.644;2022-12-07T08:59:30;101053.78;;;5.18;74.75
36248;BME280;22287;50.824;5.644;2022-12-07T09:01:57;101044.91;;;5.47;73.99
36248;BME280;22287;50.824;5.644;2022-12-07T09:04:24;101049.09;;;5.67;74.22
36248;BME280;22287;50.824;5.644;2022-12-07T09:06:50;101045.31;;;5.41;74.50
36248;BME280;22287;50.824;5.644;2022-12-07T09:09:17;101042.19;;;5.33;75.42
36248;BME280;22287;50.824;5.644;2022-12-07T09:11:44;101039.72;;;5.60;74.58
36248;BME280;22287;50.824;5.644;2022-12-07T09:14:12;101046.56;;;5.50;74.99
36248;BME280;22287;50.824;5.644;2022-12-07T09:16:39;101049.28;;;5.34;75.75
36248;BME280;22287;50.824;5.644;2022-12-07T09:19:07;101044.66;;;5.81;74.54
36248;BME280;22287;50.824;5.644;2022-12-07T09:21:34;101044.13;;;5.90;73.82
36248;BME280;22287;50.824;5.644;2022-12-07T09:24:02;101058.13;;;5.96;74.13
36248;BME280;22287;50.824;5.644;2022-12-07T09:26:28;101050.19;;;6.36;73.06
36248;BME280;22287;50.824;5.644;2022-12-07T09:28:55;101050.13;;;6.24;73.73
36248;BME280;22287;50.824;5.644;2022-12-07T09:31:22;101052.38;;;5.87;74.55
36248;BME280;22287;50.824;5.644;2022-12-07T09:33:58;101049.31;;;6.22;74.29
36248;BME280;22287;50.824;5.644;2022-12-07T09:36:26;101045.41;;;6.41;73.92
36248;BME280;22287;50.824;5.644;2022-12-07T09:38:54;101043.06;;;5.93;74.56
36248;BME280;22287;50.824;5.644;2022-12-07T09:41:21;101040.88;;;6.14;73.95
36248;BME280;22287;50.824;5.644;2022-12-07T09:43:49;101047.44;;;6.24;74.04
36248;BME280;22287;50.824;5.644;2022-12-07T09:46:17;101033.72;;;6.42;72.90
36248;BME280;22287;50.824;5.644;2022-12-07T09:48:46;101029.97;;;6.17;73.46
36248;BME280;22287;50.824;5.644;2022-12-07T09:51:22;101037.81;;;6.20;73.84
36248;BME280;22287;50.824;5.644;2022-12-07T09:53:53;101040.28;;;5.95;74.06
36248;BME280;22287;50.824;5.644;2022-12-07T09:56:20;101039.63;;;6.05;74.75
36248;BME280;22287;50.824;5.644;2022-12-07T09:58:48;101051.06;;;6.51;73.77
36248;BME280;22287;50.824;5.644;2022-12-07T10:01:20;101041.84;;;6.55;74.13
36248;BME280;22287;50.824;5.644;2022-12-07T10:03:53;101038.94;;;6.72;74.02
36248;BME280;22287;50.824;5.644;2022-12-07T10:06:21;101035.34;;;6.45;74.09
36248;BME280;22287;50.824;5.644;2022-12-07T10:08:48;101035.84;;;6.92;71.72
36248;BME280;22287;50.824;5.644;2022-12-07T10:11:15;101033.66;;;6.85;71.89
36248;BME280;22287;50.824;5.644;2022-12-07T10:13:47;101035.66;;;6.95;72.18
36248;BME280;22287;50.824;5.644;2022-12-07T10:18:52;101031.75;;;6.87;73.38
36248;BME280;22287;50.824;5.644;2022-12-07T10:21:21;101030.47;;;6.92;72.32
36248;BME280;22287;50.824;5.644;2022-12-07T10:26:51;101019.03;;;7.03;72.59
36248;BME280;22287;50.824;5.644;2022-12-07T10:34:41;101007.31;;;7.31;72.28
36248;BME280;22287;50.824;5.644;2022-12-07T10:39:47;101008.03;;;7.20;72.34
36248;BME280;22287;50.824;5.644;2022-12-07T10:42:28;101006.69;;;6.86;74.37
36248;BME280;22287;50.824;5.644;2022-12-07T10:45:17;101003.44;;;6.81;74.42
36248;BME280;22287;50.824;5.644;2022-12-07T10:48:08;101002.66;;;7.20;73.66
36248;BME280;22287;50.824;5.644;2022-12-07T10:51:02;100998.78;;;7.63;71.09
36248;BME280;22287;50.824;5.644;2022-12-07T10:54:02;100995.22;;;7.24;72.89
36248;BME280;22287;50.824;5.644;2022-12-07T10:56:43;100989.06;;;7.48;71.50
36248;BME280;22287;50.824;5.644;2022-12-07T10:59:46;100992.72;;;7.60;70.71
36248;BME280;22287;50.824;5.644;2022-12-07T11:10:59;100973.22;;;7.31;72.48
36248;BME280;22287;50.824;5.644;2022-12-07T11:16:40;100963.41;;;7.95;70.84
36248;BME280;22287;50.824;5.644;2022-12-07T11:19:28;100965.31;;;7.80;71.42
36248;BME280;22287;50.824;5.644;2022-12-07T11:22:04;100962.09;;;8.13;70.32
36248;BME280;22287;50.824;5.644;2022-12-07T11:28:06;100950.69;;;7.97;71.17
36248;BME280;22287;50.824;5.644;2022-12-07T11:31:11;100945.66;;;7.92;71.25
36248;BME280;22287;50.824;5.644;2022-12-07T11:34:02;100934.09;;;7.40;73.02
36248;BME280;22287;50.824;5.644;2022-12-07T11:36:52;100934.09;;;7.65;72.40
36248;BME280;22287;50.824;5.644;2022-12-07T11:39:44;100928.84;;;7.76;71.69
36248;BME280;22287;50.824;5.644;2022-12-07T11:42:20;100929.16;;;7.97;70.38
36248;BME280;22287;50.824;5.644;2022-12-07T11:45:00;100924.44;;;8.00;70.30
36248;BME280;22287;50.824;5.644;2022-12-07T11:47:54;100921.00;;;7.48;72.59
36248;BME280;22287;50.824;5.644;2022-12-07T11:50:37;100923.09;;;7.30;73.88
36248;BME280;22287;50.824;5.644;2022-12-07T11:58:35;100918.84;;;6.74;75.77
36248;BME280;22287;50.824;5.644;2022-12-07T12:06:40;100913.75;;;7.48;72.53
36248;BME280;22287;50.824;5.644;2022-12-07T12:21:02;100893.03;;;7.76;72.76
36248;BME280;22287;50.824;5.644;2022-12-07T12:23:46;100893.88;;;7.89;71.47
36248;BME280;22287;50.824;5.644;2022-12-07T12:26:18;100890.88;;;7.43;73.73
36248;BME280;22287;50.824;5.644;2022-12-07T12:33:51;100887.16;;;8.07;72.02
36248;BME280;22287;50.824;5.644;2022-12-07T12:39:09;100878.91;;;7.72;72.08
36248;BME280;22287;50.824;5.644;2022-12-07T12:47:37;100870.00;;;8.20;72.11
36248;BME280;22287;50.824;5.644;2022-12-07T12:57:36;100865.38;;;8.22;72.38
36248;BME280;22287;50.824;5.644;2022-12-07T13:00:17;100862.56;;;8.37;71.55
36248;BME280;22287;50.824;5.644;2022-12-07T13:02:47;100854.84;;;8.56;70.68
36248;BME280;22287;50.824;5.644;2022-12-07T13:05:19;100861.53;;;8.01;72.78
36248;BME280;22287;50.824;5.644;2022-12-07T13:28:49;100840.16;;;8.23;70.83
36248;BME280;22287;50.824;5.644;2022-12-07T13:33:53;100822.91;;;8.62;69.17
36248;BME280;22287;50.824;5.644;2022-12-07T13:39:34;100827.16;;;8.77;68.80
36248;BME280;22287;50.824;5.644;2022-12-07T13:42:11;100824.72;;;8.62;69.61
36248;BME280;22287;50.824;5.644;2022-12-07T13:44:41;100823.00;;;8.37;69.38
36248;BME280;22287;50.824;5.644;2022-12-07T13:47:23;100828.13;;;8.53;68.95
36248;BME280;22287;50.824;5.644;2022-12-07T13:49:56;100817.25;;;8.31;69.78
36248;BME280;22287;50.824;5.644;2022-12-07T13:52:24;100812.72;;;8.55;68.81
36248;BME280;22287;50.824;5.644;2022-12-07T13:57:34;100809.16;;;7.94;71.30
36248;BME280;22287;50.824;5.644;2022-12-07T14:00:18;100814.38;;;8.08;70.13
36248;BME280;22287;50.824;5.644;2022-12-07T14:05:26;100800.13;;;7.83;71.07
36248;BME280;22287;50.824;5.644;2022-12-07T14:10:37;100802.69;;;8.33;69.62
36248;BME280;22287;50.824;5.644;2022-12-07T14:15:51;100784.03;;;8.54;69.20
36248;BME280;22287;50.824;5.644;2022-12-07T14:21:15;100781.16;;;8.68;69.07
36248;BME280;22287;50.824;5.644;2022-12-07T14:23:43;100782.97;;;8.91;68.71
36248;BME280;22287;50.824;5.644;2022-12-07T14:26:19;100779.34;;;8.68;69.09
36248;BME280;22287;50.824;5.644;2022-12-07T14:28:46;100788.97;;;8.60;69.37
36248;BME280;22287;50.824;5.644;2022-12-07T14:31:17;100792.19;;;8.65;68.69
36248;BME280;22287;50.824;5.644;2022-12-07T14:33:51;100796.13;;;8.72;68.32
36248;BME280;22287;50.824;5.644;2022-12-07T14:36:18;100787.50;;;8.56;69.20
36248;BME280;22287;50.824;5.644;2022-12-07T14:38:45;100780.06;;;8.23;69.59
36248;BME280;22287;50.824;5.644;2022-12-07T14:41:23;100787.50;;;8.56;69.42
36248;BME280;22287;50.824;5.644;2022-12-07T14:44:12;100781.78;;;8.37;69.48
36248;BME280;22287;50.824;5.644;2022-12-07T14:46:50;100783.56;;;8.12;70.65
36248;BME280;22287;50.824;5.644;2022-12-07T14:49:37;100781.91;;;8.22;70.29
36248;BME280;22287;50.824;5.644;2022-12-07T14:52:05;100767.78;;;8.32;70.18
36248;BME280;22287;50.824;5.644;2022-12-07T14:54:53;100772.06;;;8.34;69.94
36248;BME280;22287;50.824;5.644;2022-12-07T14:57:20;100763.53;;;8.64;69.11
36248;BME280;22287;50.824;5.644;2022-12-07T14:59:47;100771.16;;;8.22;70.03
36248;BME280;22287;50.824;5.644;2022-12-07T15:02:15;100759.97;;;7.92;70.74
36248;BME280;22287;50.824;5.644;2022-12-07T15:04:42;100759.09;;;8.15;69.74
36248;BME280;22287;50.824;5.644;2022-12-07T15:07:15;100752.03;;;7.78;70.25
36248;BME280;22287;50.824;5.644;2022-12-07T15:09:45;100746.03;;;7.75;70.01
36248;BME280;22287;50.824;5.644;2022-12-07T15:12:12;100751.91;;;7.92;69.01
36248;BME280;22287;50.824;5.644;2022-12-07T15:14:38;100752.97;;;7.41;71.25
36248;BME280;22287;50.824;5.644;2022-12-07T15:17:05;100755.78;;;7.27;71.90
36248;BME280;22287;50.824;5.644;2022-12-07T15:19:35;100764.38;;;7.19;72.16
36248;BME280;22287;50.824;5.644;2022-12-07T15:22:02;100763.53;;;7.31;71.62
36248;BME280;22287;50.824;5.644;2022-12-07T15:24:28;100751.19;;;7.65;69.89
36248;BME280;22287;50.824;5.644;2022-12-07T15:26:55;100753.88;;;7.65;70.09
36248;BME280;22287;50.824;5.644;2022-12-07T15:29:22;100741.03;;;7.45;70.76
36248;BME280;22287;50.824;5.644;2022-12-07T15:31:50;100747.59;;;7.41;70.81
36248;BME280;22287;50.824;5.644;2022-12-07T15:34:24;100753.66;;;7.68;70.07
36248;BME280;22287;50.824;5.644;2022-12-07T15:36:52;100744.94;;;7.77;69.72
36248;BME280;22287;50.824;5.644;2022-12-07T15:39:18;100754.47;;;7.45;70.95
36248;BME280;22287;50.824;5.644;2022-12-07T15:41:45;100747.59;;;7.16;71.35
36248;BME280;22287;50.824;5.644;2022-12-07T15:44:13;100750.16;;;7.55;70.17
36248;BME280;22287;50.824;5.644;2022-12-07T15:46:59;100750.22;;;7.66;70.22
36248;BME280;22287;50.824;5.644;2022-12-07T15:49:26;100746.41;;;7.45;70.60
36248;BME280;22287;50.824;5.644;2022-12-07T15:51:54;100748.38;;;7.43;70.84
36248;BME280;22287;50.824;5.644;2022-12-07T15:54:28;100754.56;;;7.43;70.94
36248;BME280;22287;50.824;5.644;2022-12-07T15:56:56;100741.47;;;7.39;70.38